createdAt,value
2023-08-16T00:00:42.467Z,25.30
2023-08-16T00:03:10.799Z,25.40
2023-08-16T00:05:42.759Z,25.30
2023-08-16T00:08:10.820Z,25.30
2023-08-16T00:10:38.905Z,25.30
2023-08-16T00:13:10.288Z,25.30
2023-08-16T00:15:38.348Z,25.20
2023-08-16T00:18:07.116Z,25.20
2023-08-16T00:20:37.810Z,25.20
2023-08-16T00:23:08.589Z,25.20
2023-08-16T00:25:36.651Z,25.20
2023-08-16T00:28:05.101Z,25.20
2023-08-16T00:30:33.170Z,25.10
2023-08-16T00:33:01.381Z,25.10
2023-08-16T00:35:29.607Z,25.00
2023-08-16T00:37:59.620Z,25.00
2023-08-16T00:40:29.120Z,25.00
2023-08-16T00:42:57.199Z,24.90
2023-08-16T00:45:27.459Z,24.80
2023-08-16T00:47:55.772Z,24.80
2023-08-16T00:50:25.302Z,24.70
2023-08-16T00:52:54.547Z,24.70
2023-08-16T00:55:23.391Z,24.60
2023-08-16T00:57:52.919Z,24.60
2023-08-16T01:00:21.498Z,24.60
2023-08-16T01:02:49.634Z,24.60
2023-08-16T01:05:18.790Z,24.60
2023-08-16T01:07:48.298Z,24.50
2023-08-16T01:10:16.656Z,24.50
2023-08-16T01:12:49.887Z,24.40
2023-08-16T01:15:27.272Z,24.40
2023-08-16T01:17:56.651Z,24.40
2023-08-16T01:20:26.260Z,24.30
2023-08-16T01:23:06.083Z,24.50
2023-08-16T01:25:43.472Z,24.30
2023-08-16T01:28:14.459Z,24.30
2023-08-16T01:30:43.421Z,24.30
2023-08-16T01:33:12.930Z,24.20
2023-08-16T01:35:42.191Z,24.20
2023-08-16T01:38:14.195Z,24.20
2023-08-16T01:40:49.909Z,24.10
2023-08-16T01:43:21.299Z,24.10
2023-08-16T01:45:50.227Z,24.20
2023-08-16T01:48:19.812Z,24.10
2023-08-16T01:50:48.789Z,24.00
2023-08-16T01:53:17.168Z,24.00
2023-08-16T01:55:45.392Z,24.00
2023-08-16T01:58:13.589Z,24.00
2023-08-16T02:00:43.425Z,24.00
2023-08-16T02:03:11.701Z,23.90
2023-08-16T02:05:40.006Z,23.90
2023-08-16T02:08:08.142Z,23.80
2023-08-16T02:10:36.341Z,23.90
2023-08-16T02:13:04.908Z,23.80
2023-08-16T02:15:33.289Z,23.80
2023-08-16T02:18:03.552Z,24.10
2023-08-16T02:20:31.749Z,23.70
2023-08-16T02:22:59.811Z,23.40
2023-08-16T02:25:27.981Z,23.60
2023-08-16T02:27:56.059Z,23.60
2023-08-16T02:30:24.287Z,23.60
2023-08-16T02:32:52.614Z,23.60
2023-08-16T02:35:22.162Z,23.60
2023-08-16T02:37:50.327Z,23.50
2023-08-16T02:40:18.592Z,23.40
2023-08-16T02:42:47.868Z,23.40
2023-08-16T02:45:16.046Z,23.50
2023-08-16T02:47:44.221Z,23.30
2023-08-16T02:50:21.323Z,23.20
2023-08-16T02:52:50.831Z,23.10
2023-08-16T02:55:19.377Z,23.20
2023-08-16T02:57:47.599Z,23.20
2023-08-16T03:00:18.193Z,23.10
2023-08-16T03:02:46.922Z,23.10
2023-08-16T03:05:15.687Z,23.10
2023-08-16T03:07:44.778Z,23.50
2023-08-16T03:10:15.233Z,23.50
2023-08-16T03:12:44.076Z,23.50
2023-08-16T03:15:13.836Z,23.00
2023-08-16T03:17:42.542Z,23.00
2023-08-16T03:20:11.746Z,22.90
2023-08-16T03:22:41.838Z,22.90
2023-08-16T03:25:10.747Z,22.90
2023-08-16T03:27:40.597Z,23.00
2023-08-16T03:30:09.647Z,22.90
2023-08-16T03:32:38.214Z,22.90
2023-08-16T03:35:07.606Z,22.80
2023-08-16T03:37:38.857Z,22.80
2023-08-16T03:40:08.847Z,22.90
2023-08-16T03:42:40.404Z,22.80
2023-08-16T03:45:11.291Z,22.80
2023-08-16T03:47:40.248Z,22.70
2023-08-16T03:50:09.267Z,23.30
2023-08-16T03:52:37.630Z,22.40
2023-08-16T03:55:06.471Z,24.00
2023-08-16T03:57:34.723Z,22.70
2023-08-16T04:00:03.138Z,22.70
2023-08-16T04:02:36.364Z,22.90
2023-08-16T04:05:10.501Z,23.20
2023-08-16T04:07:39.499Z,22.70
2023-08-16T04:10:13.514Z,24.10
2023-08-16T04:12:41.890Z,22.60
2023-08-16T04:15:11.564Z,22.60
2023-08-16T04:17:42.096Z,22.60
2023-08-16T04:20:12.275Z,22.60
2023-08-16T04:22:44.294Z,22.60
2023-08-16T04:25:12.873Z,22.70
2023-08-16T04:27:44.133Z,23.00
2023-08-16T04:30:15.896Z,22.60
2023-08-16T04:32:47.222Z,23.20
2023-08-16T04:35:17.561Z,24.00
2023-08-16T04:37:45.832Z,24.40
2023-08-16T04:40:14.707Z,24.50
2023-08-16T04:42:43.049Z,25.10
2023-08-16T04:45:14.790Z,25.40
2023-08-16T04:47:44.427Z,26.20
2023-08-16T04:50:15.621Z,26.70
2023-08-16T04:52:44.354Z,27.20
2023-08-16T04:55:12.852Z,27.60
2023-08-16T04:57:42.119Z,28.00
2023-08-16T05:00:11.959Z,28.60
2023-08-16T05:02:41.097Z,29.00
2023-08-16T05:05:09.574Z,29.50
2023-08-16T05:07:39.151Z,30.00
2023-08-16T05:10:07.919Z,30.50
2023-08-16T05:12:36.069Z,30.90
2023-08-16T05:15:04.247Z,31.20
2023-08-16T05:17:32.269Z,31.60
2023-08-16T05:20:00.281Z,31.90
2023-08-16T05:22:28.340Z,32.30
2023-08-16T05:24:57.839Z,32.70
2023-08-16T05:27:26.081Z,33.10
2023-08-16T05:29:54.289Z,33.60
2023-08-16T05:32:22.375Z,33.70
2023-08-16T05:34:50.337Z,34.20
2023-08-16T05:37:18.421Z,34.50
2023-08-16T05:39:46.607Z,34.80
2023-08-16T05:42:16.608Z,35.20
2023-08-16T05:44:44.885Z,35.50
2023-08-16T05:47:13.209Z,35.70
2023-08-16T05:49:41.441Z,35.80
2023-08-16T05:52:09.805Z,36.00
2023-08-16T05:54:38.231Z,36.40
2023-08-16T05:57:07.100Z,36.70
2023-08-16T05:59:36.830Z,37.20
2023-08-16T06:02:05.669Z,37.20
2023-08-16T06:04:33.872Z,37.50
2023-08-16T06:07:02.121Z,37.40
2023-08-16T06:09:33.582Z,37.60
2023-08-16T06:12:02.622Z,38.20
2023-08-16T06:14:39.605Z,38.40
2023-08-16T06:17:09.567Z,38.70
2023-08-16T06:19:38.004Z,39.00
2023-08-16T06:22:06.593Z,39.20
2023-08-16T06:24:39.630Z,39.50
2023-08-16T06:27:08.757Z,39.90
2023-08-16T06:29:37.938Z,40.20
2023-08-16T06:32:08.134Z,40.30
2023-08-16T06:34:39.462Z,40.40
2023-08-16T06:37:07.820Z,40.70
2023-08-16T06:39:36.432Z,41.10
2023-08-16T06:42:05.265Z,41.40
2023-08-16T06:44:33.982Z,41.80
2023-08-16T06:47:02.316Z,42.00
2023-08-16T06:49:32.978Z,42.10
2023-08-16T06:52:02.534Z,42.20
2023-08-16T06:54:31.306Z,42.30
2023-08-16T06:57:00.425Z,42.40
2023-08-16T06:59:31.213Z,42.30
2023-08-16T07:02:00.210Z,42.30
2023-08-16T07:04:28.751Z,42.70
2023-08-16T07:06:57.206Z,42.70
2023-08-16T07:09:28.708Z,42.90
2023-08-16T07:11:57.060Z,43.40
2023-08-16T07:14:25.450Z,43.50
2023-08-16T07:16:53.831Z,43.70
2023-08-16T07:19:22.963Z,43.70
2023-08-16T07:21:51.232Z,43.70
2023-08-16T07:24:19.281Z,44.20
2023-08-16T07:26:48.945Z,44.90
2023-08-16T07:29:17.446Z,44.80
2023-08-16T07:31:49.540Z,45.30
2023-08-16T07:34:18.222Z,45.20
2023-08-16T07:36:47.553Z,45.20
2023-08-16T07:39:15.526Z,44.70
2023-08-16T07:41:43.613Z,44.60
2023-08-16T07:44:12.891Z,44.80
2023-08-16T07:46:40.965Z,44.00
2023-08-16T07:49:08.872Z,43.50
2023-08-16T07:51:36.903Z,43.20
2023-08-16T07:54:05.654Z,43.20
2023-08-16T07:56:36.283Z,43.50
2023-08-16T07:59:08.269Z,43.90
2023-08-16T08:01:37.668Z,43.90
2023-08-16T08:04:06.466Z,43.70
2023-08-16T08:06:34.871Z,43.00
2023-08-16T08:09:02.905Z,42.70
2023-08-16T08:11:31.006Z,42.90
2023-08-16T08:13:59.242Z,43.10
2023-08-16T08:16:27.447Z,43.90
2023-08-16T08:18:56.894Z,44.30
2023-08-16T08:21:24.955Z,43.90
2023-08-16T08:23:52.991Z,44.10
2023-08-16T08:26:20.906Z,44.30
2023-08-16T08:29:00.894Z,44.60
2023-08-16T08:31:28.958Z,44.70
2023-08-16T08:33:58.407Z,43.80
2023-08-16T08:36:26.669Z,44.20
2023-08-16T08:38:54.717Z,44.50
2023-08-16T08:41:30.929Z,44.00
2023-08-16T08:44:02.402Z,43.70
2023-08-16T08:46:31.492Z,44.60
2023-08-16T08:49:03.600Z,45.60
2023-08-16T08:51:32.793Z,46.40
2023-08-16T08:54:00.869Z,46.80
2023-08-16T08:56:31.406Z,47.20
2023-08-16T08:59:14.495Z,47.50
2023-08-16T09:01:46.082Z,47.40
2023-08-16T09:04:16.512Z,47.20
2023-08-16T09:06:45.386Z,47.70
2023-08-16T09:09:13.968Z,48.10
2023-08-16T09:11:43.832Z,47.80
2023-08-16T09:14:12.028Z,48.00
2023-08-16T09:16:40.033Z,48.00
2023-08-16T09:19:16.081Z,48.10
2023-08-16T09:21:44.388Z,47.70
2023-08-16T09:24:12.494Z,47.30
2023-08-16T09:26:42.576Z,46.50
2023-08-16T09:29:10.627Z,45.60
2023-08-16T09:31:42.676Z,45.30
2023-08-16T09:34:11.492Z,45.30
2023-08-16T09:36:44.667Z,45.90
2023-08-16T09:39:12.991Z,46.60
2023-08-16T09:41:48.960Z,46.00
2023-08-16T09:44:16.986Z,45.60
2023-08-16T09:49:16.141Z,45.60
2023-08-16T09:54:19.547Z,45.20
2023-08-16T10:01:53.732Z,46.70
2023-08-16T10:04:59.435Z,45.80
2023-08-16T10:07:14.442Z,44.60
2023-08-16T10:09:45.628Z,43.60
2023-08-16T10:12:14.037Z,43.70
2023-08-16T10:14:42.361Z,44.10
2023-08-16T10:17:12.867Z,44.90
2023-08-16T10:19:45.810Z,45.50
2023-08-16T10:24:54.576Z,43.80
2023-08-16T10:27:23.405Z,42.60
2023-08-16T10:29:56.021Z,41.10
2023-08-16T10:32:26.850Z,40.20
2023-08-16T10:34:59.761Z,39.70
2023-08-16T10:37:29.526Z,39.40
2023-08-16T10:40:11.972Z,39.20
2023-08-16T10:42:50.878Z,38.80
2023-08-16T10:45:24.842Z,38.20
2023-08-16T10:47:53.157Z,38.00
2023-08-16T10:50:21.422Z,37.80
2023-08-16T10:52:51.403Z,38.00
2023-08-16T10:55:25.945Z,38.40
2023-08-16T10:57:54.544Z,38.60
2023-08-16T11:00:34.015Z,38.70
2023-08-16T11:03:05.321Z,39.20
2023-08-16T11:05:35.938Z,39.60
2023-08-16T11:08:12.585Z,40.10
2023-08-16T11:10:40.685Z,40.60
2023-08-16T11:13:11.724Z,40.50
2023-08-16T11:15:41.011Z,40.30
2023-08-16T11:18:10.839Z,39.80
2023-08-16T11:20:40.556Z,39.30
2023-08-16T11:23:11.152Z,39.30
2023-08-16T11:25:41.020Z,39.30
2023-08-16T11:28:08.960Z,39.10
2023-08-16T11:30:36.896Z,39.30
2023-08-16T11:33:06.939Z,39.40
2023-08-16T11:35:37.328Z,39.20
2023-08-16T11:38:06.285Z,38.80
2023-08-16T11:40:35.583Z,38.40
2023-08-16T11:43:06.035Z,38.30
2023-08-16T11:45:34.031Z,38.30
2023-08-16T11:48:05.349Z,38.30
2023-08-16T11:50:35.936Z,38.30
2023-08-16T11:53:05.091Z,38.60
2023-08-16T11:55:34.432Z,38.60
2023-08-16T11:58:10.409Z,38.60
2023-08-16T12:00:39.560Z,38.50
2023-08-16T12:03:11.545Z,38.40
2023-08-16T12:05:41.025Z,38.30
2023-08-16T12:08:09.816Z,38.10
2023-08-16T12:10:38.969Z,38.00
2023-08-16T12:13:15.221Z,37.80
2023-08-16T12:15:43.946Z,37.70
2023-08-16T12:18:12.561Z,37.70
2023-08-16T12:20:40.539Z,37.70
2023-08-16T12:23:08.691Z,37.70
2023-08-16T12:25:37.160Z,37.80
2023-08-16T12:28:05.800Z,37.90
2023-08-16T12:30:35.255Z,37.90
2023-08-16T12:33:03.790Z,38.00
2023-08-16T12:35:32.211Z,38.10
2023-08-16T12:38:03.963Z,38.10
2023-08-16T12:40:32.431Z,37.90
2023-08-16T12:43:03.130Z,37.70
2023-08-16T12:45:31.429Z,37.40
2023-08-16T12:48:02.385Z,37.00
2023-08-16T12:50:30.438Z,36.60
2023-08-16T12:52:58.537Z,36.40
2023-08-16T12:55:26.718Z,36.20
2023-08-16T12:58:02.928Z,36.10
2023-08-16T13:00:45.908Z,36.10
2023-08-16T13:03:31.586Z,35.90
2023-08-16T13:08:32.529Z,35.50
2023-08-16T13:11:09.566Z,35.60
2023-08-16T13:13:39.495Z,35.50
2023-08-16T13:16:10.193Z,35.80
2023-08-16T13:18:45.531Z,35.30
2023-08-16T13:26:37.304Z,35.60
2023-08-16T13:32:01.311Z,35.70
2023-08-16T13:37:00.654Z,35.60
2023-08-16T13:39:42.481Z,35.60
2023-08-16T13:42:17.726Z,35.10
2023-08-16T13:47:17.334Z,33.70
2023-08-16T13:49:47.100Z,33.20
2023-08-16T13:52:15.122Z,33.00
2023-08-16T13:54:43.168Z,32.70
2023-08-16T13:57:11.210Z,32.40
2023-08-16T13:59:40.417Z,32.20
2023-08-16T14:02:08.490Z,32.20
2023-08-16T14:04:36.469Z,32.20
2023-08-16T14:07:06.349Z,32.40
2023-08-16T14:09:34.490Z,32.50
2023-08-16T14:12:02.563Z,32.50
2023-08-16T14:14:30.551Z,32.70
2023-08-16T14:16:58.644Z,32.50
2023-08-16T14:19:27.060Z,32.70
2023-08-16T14:21:58.284Z,32.20
2023-08-16T14:24:28.136Z,32.10
2023-08-16T14:26:56.441Z,32.10
2023-08-16T14:29:24.557Z,32.10
2023-08-16T14:31:52.590Z,32.00
2023-08-16T14:34:20.989Z,31.90
2023-08-16T14:36:49.020Z,32.00
2023-08-16T14:39:17.038Z,31.90
2023-08-16T14:41:46.429Z,31.90
2023-08-16T14:44:14.626Z,31.90
2023-08-16T14:46:42.618Z,31.90
2023-08-16T14:49:10.614Z,31.60
2023-08-16T14:51:38.710Z,31.50
2023-08-16T14:54:07.503Z,31.50
2023-08-16T14:56:35.491Z,31.50
2023-08-16T14:59:06.613Z,31.40
2023-08-16T15:01:35.088Z,31.60
2023-08-16T15:04:03.314Z,31.80
2023-08-16T15:06:31.469Z,31.80
2023-08-16T15:09:09.625Z,31.90
2023-08-16T15:11:37.789Z,32.10
2023-08-16T15:14:10.407Z,32.30
2023-08-16T15:16:38.482Z,32.40
2023-08-16T15:19:06.843Z,32.60
2023-08-16T15:21:36.134Z,32.60
2023-08-16T15:24:04.676Z,32.70
2023-08-16T15:26:32.634Z,32.70
2023-08-16T15:29:00.611Z,32.70
2023-08-16T15:31:30.042Z,32.60
2023-08-16T15:33:58.067Z,32.60
2023-08-16T15:36:26.069Z,32.40
2023-08-16T15:38:54.435Z,32.60
2023-08-16T15:41:22.431Z,32.70
2023-08-16T15:43:50.475Z,32.90
2023-08-16T15:46:19.611Z,32.90
2023-08-16T15:48:49.582Z,33.00
2023-08-16T15:51:17.597Z,32.90
2023-08-16T15:53:45.749Z,32.70
2023-08-16T15:56:13.699Z,32.50
2023-08-16T15:58:41.787Z,32.40
2023-08-16T16:01:10.573Z,32.40
2023-08-16T16:03:38.928Z,32.30
2023-08-16T16:06:09.362Z,32.30
2023-08-16T16:08:37.426Z,32.20
2023-08-16T16:11:05.340Z,32.10
2023-08-16T16:13:33.530Z,31.90
2023-08-16T16:16:01.545Z,31.80
2023-08-16T16:18:29.546Z,31.80
2023-08-16T16:20:58.408Z,31.70
2023-08-16T16:23:27.980Z,31.60
2023-08-16T16:25:57.169Z,31.60
2023-08-16T16:28:25.508Z,31.50
2023-08-16T16:30:53.614Z,31.50
2023-08-16T16:33:21.646Z,31.40
2023-08-16T16:35:49.832Z,31.40
2023-08-16T16:38:17.882Z,31.40
2023-08-16T16:40:47.298Z,31.50
2023-08-16T16:43:17.160Z,31.40
2023-08-16T16:45:45.278Z,31.30
2023-08-16T16:48:27.116Z,31.20
2023-08-16T16:51:07.370Z,31.10
2023-08-16T16:53:35.435Z,31.00
2023-08-16T16:56:04.875Z,30.80
2023-08-16T16:58:33.448Z,30.90
2023-08-16T17:01:01.734Z,30.80
2023-08-16T17:03:29.794Z,30.70
2023-08-16T17:05:57.752Z,30.50
2023-08-16T17:08:25.633Z,30.40
2023-08-16T17:11:19.173Z,30.30
2023-08-16T17:13:48.542Z,30.30
2023-08-16T17:16:16.598Z,30.00
2023-08-16T17:18:45.063Z,30.20
2023-08-16T17:21:16.214Z,30.20
2023-08-16T17:23:44.633Z,30.10
2023-08-16T17:26:13.293Z,30.10
2023-08-16T17:28:41.335Z,29.90
2023-08-16T17:31:12.013Z,29.70
2023-08-16T17:33:40.610Z,29.50
2023-08-16T17:36:13.311Z,29.40
2023-08-16T17:38:43.972Z,29.30
2023-08-16T17:41:14.855Z,29.30
2023-08-16T17:43:44.300Z,29.30
2023-08-16T17:46:13.717Z,29.20
2023-08-16T17:48:41.687Z,29.20
2023-08-16T17:51:09.850Z,29.10
2023-08-16T17:53:37.806Z,28.90
2023-08-16T17:56:06.774Z,29.00
2023-08-16T17:58:36.536Z,28.90
2023-08-16T18:01:06.495Z,28.80
2023-08-16T18:03:36.462Z,28.90
2023-08-16T18:06:04.724Z,28.60
2023-08-16T18:08:32.814Z,28.60
2023-08-16T18:11:01.057Z,28.60
2023-08-16T18:13:29.562Z,28.40
2023-08-16T18:15:58.030Z,28.50
2023-08-16T18:18:27.160Z,28.30
2023-08-16T18:20:59.857Z,28.20
2023-08-16T18:23:28.816Z,28.10
2023-08-16T18:25:57.486Z,28.10
2023-08-16T18:28:26.323Z,28.10
2023-08-16T18:30:56.061Z,27.90
2023-08-16T18:33:24.165Z,27.90
2023-08-16T18:35:52.130Z,27.80
2023-08-16T18:38:21.415Z,27.80
2023-08-16T18:40:49.423Z,27.70
2023-08-16T18:43:19.054Z,27.70
2023-08-16T18:45:48.465Z,27.70
2023-08-16T18:48:16.587Z,27.60
2023-08-16T18:50:45.224Z,27.60
2023-08-16T18:53:13.399Z,27.50
2023-08-16T18:55:44.099Z,27.50
2023-08-16T18:58:12.052Z,27.40
2023-08-16T19:00:43.068Z,27.40
2023-08-16T19:03:11.444Z,27.40
2023-08-16T19:05:43.939Z,27.20
2023-08-16T19:08:13.958Z,27.30
2023-08-16T19:10:43.880Z,27.20
2023-08-16T19:13:11.819Z,27.20
2023-08-16T19:15:39.972Z,27.10
2023-08-16T19:18:08.832Z,27.00
2023-08-16T19:20:37.994Z,26.90
2023-08-16T19:23:06.709Z,26.80
2023-08-16T19:25:34.843Z,26.70
2023-08-16T19:28:04.506Z,26.70
2023-08-16T19:30:32.542Z,26.60
2023-08-16T19:33:00.725Z,26.70
2023-08-16T19:35:28.809Z,26.60
2023-08-16T19:37:57.022Z,26.60
2023-08-16T19:40:27.404Z,26.50
2023-08-16T19:42:55.407Z,26.50
2023-08-16T19:45:27.635Z,26.40
2023-08-16T19:47:55.987Z,26.30
2023-08-16T19:50:24.957Z,26.30
2023-08-16T19:52:53.986Z,26.20
2023-08-16T19:55:22.160Z,26.20
2023-08-16T19:57:54.746Z,26.10
2023-08-16T20:00:27.467Z,26.10
2023-08-16T20:02:58.206Z,26.00
2023-08-16T20:05:26.292Z,26.00
2023-08-16T20:07:54.471Z,25.90
2023-08-16T20:10:25.044Z,25.90
2023-08-16T20:12:53.189Z,25.80
2023-08-16T20:15:21.230Z,25.80
2023-08-16T20:17:50.658Z,25.80
2023-08-16T20:20:18.745Z,25.80
2023-08-16T20:22:47.379Z,25.80
2023-08-16T20:25:15.365Z,25.80
2023-08-16T20:27:43.497Z,25.90
2023-08-16T20:30:12.553Z,25.80
2023-08-16T20:32:43.496Z,25.70
2023-08-16T20:35:14.115Z,25.60
2023-08-16T20:37:42.339Z,25.60
2023-08-16T20:40:12.155Z,25.50
2023-08-16T20:42:41.302Z,25.50
2023-08-16T20:45:10.798Z,25.50
2023-08-16T20:47:39.552Z,25.50
2023-08-16T20:50:08.152Z,25.50
2023-08-16T20:52:42.321Z,25.50
2023-08-16T20:55:11.362Z,25.50
2023-08-16T20:57:39.808Z,25.50
2023-08-16T21:00:09.426Z,25.50
2023-08-16T21:02:37.517Z,25.50
2023-08-16T21:05:26.379Z,25.40
2023-08-16T21:08:00.299Z,25.40
2023-08-16T21:10:30.170Z,25.30
2023-08-16T21:12:58.204Z,25.30
2023-08-16T21:15:26.244Z,25.30
2023-08-16T21:17:54.256Z,25.20
2023-08-16T21:20:25.336Z,25.10
2023-08-16T21:22:55.377Z,25.00
2023-08-16T21:25:23.412Z,25.00
2023-08-16T21:27:52.132Z,24.90
2023-08-16T21:30:20.237Z,24.80
2023-08-16T21:32:48.231Z,24.80
2023-08-16T21:35:16.744Z,24.80
2023-08-16T21:37:48.441Z,24.70
2023-08-16T21:40:18.139Z,24.70
2023-08-16T21:42:46.092Z,24.70
2023-08-16T21:45:14.108Z,24.70
2023-08-16T21:47:42.038Z,24.60
2023-08-16T21:50:10.679Z,24.70
2023-08-16T21:52:38.692Z,24.60
2023-08-16T21:55:07.269Z,24.60
2023-08-16T21:57:36.758Z,24.60
2023-08-16T22:00:05.310Z,24.60
2023-08-16T22:02:32.354Z,24.50
2023-08-16T22:05:00.301Z,24.50
2023-08-16T22:07:28.314Z,24.50
2023-08-16T22:09:56.292Z,24.40
2023-08-16T22:12:24.275Z,24.40
2023-08-16T22:14:53.608Z,24.40
2023-08-16T22:17:21.613Z,24.50
2023-08-16T22:19:49.562Z,24.40
2023-08-16T22:22:17.682Z,24.40
2023-08-16T22:24:48.278Z,24.40
2023-08-16T22:27:16.275Z,24.40
2023-08-16T22:29:44.318Z,24.50
2023-08-16T22:32:13.653Z,24.50
2023-08-16T22:34:44.624Z,24.50
2023-08-16T22:37:12.753Z,24.50
2023-08-16T22:39:40.952Z,24.50
2023-08-16T22:42:08.975Z,24.50
2023-08-16T22:44:37.900Z,24.50
2023-08-16T22:47:06.549Z,24.40
2023-08-16T22:49:36.362Z,24.30
2023-08-16T22:52:04.431Z,24.60
2023-08-16T22:54:32.370Z,24.20
2023-08-16T22:57:00.423Z,24.20
2023-08-16T22:59:28.392Z,24.20
2023-08-16T23:01:56.787Z,24.20
2023-08-16T23:04:24.917Z,24.20
2023-08-16T23:06:54.194Z,24.50
2023-08-16T23:09:22.968Z,24.20
2023-08-16T23:11:51.016Z,24.20
2023-08-16T23:14:18.970Z,24.20
2023-08-16T23:16:47.018Z,24.20
2023-08-16T23:19:15.005Z,24.20
2023-08-16T23:21:42.939Z,24.20
2023-08-16T23:24:12.304Z,24.30
2023-08-16T23:26:40.313Z,24.30
2023-08-16T23:29:08.204Z,24.30
2023-08-16T23:31:38.126Z,24.30
2023-08-16T23:34:06.097Z,24.40
2023-08-16T23:36:34.358Z,24.30
2023-08-16T23:39:02.441Z,24.30
2023-08-16T23:41:35.303Z,24.30
2023-08-16T23:44:03.495Z,24.30
2023-08-16T23:46:31.554Z,24.60
2023-08-16T23:48:59.525Z,24.20
2023-08-16T23:51:27.506Z,24.20
2023-08-16T23:53:55.657Z,24.20
2023-08-16T23:56:24.612Z,24.10
2023-08-16T23:58:54.101Z,24.10
